No particular awareness of the weather is required.    There are no Weather-warnings


Meteo18 Weather Cam more information Meteo18 Weather Cam


Thunder radar more information blitzortung!


Rain radar more information rain snow radar


Visit our other weather sites:

Template documentation
and downloads

And another site



Weather Underground History page Text

Daily Summary for April 13, 2017 Units:  Both    English   Metric
« Previous Day
Next Day »
Daily Weekly Monthly Yearly Custom
  High: Low: Average:
Temperature: TemperatureC °F /  -17.8 °C 5.8 °F /  -14.6 °C 11.7 °F /  -11.3 °C
Dew Point: DewpointC °F /  -17.8 °C 4.7 °F /  -15.2 °C 6.8 °F /  -14 °C
Humidity: Humidity % 57 % 73 %
Wind Speed: WindSpeedKMH mph /  0 km/h - 3 mph /  4.8 km/h
Wind Gust: WindSpeedGustKMH mph /  0 km/h - -
Wind:- - SSW
Pressure: PressurehPa in /  0 hPa 1017.5 in /  34452.6 hPa -
Precipitation: 0.0 in /  0 mm    
Historical Graphs
 
 
Tabular Data for April 13, 2017
Time Temperature Dew Point Pressure Wind Wind Speed Wind Gust Humidity Rainfall Rate (Hourly)
TemperatureC °F /  -17.8 °C DewpointC °F /  -17.8 °C PressurehPa in /  0 hPa Calm     Humidity % HourlyPrecipMM in /  0 mm
00:02 11.9 °F /  -11.2 °C 5.7 °F /  -14.6 °C 1019.5 in /  34520.3 hPa WNW 1.6 mph /  2.6 km/h 6.4 mph /  10.3 km/h 66 % 0.0 in /  0 mm
00:12 12.0 °F /  -11.1 °C 5.8 °F /  -14.6 °C 1019.5 in /  34520.3 hPa WNW 1.6 mph /  2.6 km/h 6.4 mph /  10.3 km/h 66 % 0.0 in /  0 mm
00:17 12.2 °F /  -11 °C 6.0 °F /  -14.4 °C 1019.5 in /  34520.3 hPa WNW 1.6 mph /  2.6 km/h 6.4 mph /  10.3 km/h 66 % 0.0 in /  0 mm
00:22 12.2 °F /  -11 °C 6.0 °F /  -14.4 °C 1019.5 in /  34520.3 hPa WNW 4.8 mph /  7.7 km/h 9.7 mph /  15.6 km/h 66 % 0.0 in /  0 mm
00:27 12.3 °F /  -10.9 °C 6.1 °F /  -14.4 °C 1019.5 in /  34520.3 hPa WNW 4.8 mph /  7.7 km/h 12.9 mph /  20.8 km/h 66 % 0.0 in /  0 mm
00:32 12.3 °F /  -10.9 °C 6.1 °F /  -14.4 °C 1019.5 in /  34520.3 hPa WNW 6.4 mph /  10.3 km/h 12.9 mph /  20.8 km/h 66 % 0.0 in /  0 mm
00:37 12.2 °F /  -11 °C 6.0 °F /  -14.4 °C 1019.5 in /  34520.3 hPa NW 6.4 mph /  10.3 km/h 12.9 mph /  20.8 km/h 66 % 0.0 in /  0 mm
00:42 12.1 °F /  -11.1 °C 6.2 °F /  -14.3 °C 1019.5 in /  34520.3 hPa WNW 6.4 mph /  10.3 km/h 12.9 mph /  20.8 km/h 67 % 0.0 in /  0 mm
00:47 11.8 °F /  -11.2 °C 5.9 °F /  -14.5 °C 1019.5 in /  34520.3 hPa NW 3.2 mph /  5.1 km/h 11.3 mph /  18.2 km/h 67 % 0.0 in /  0 mm
00:52 11.8 °F /  -11.2 °C 5.9 °F /  -14.5 °C 1019.5 in /  34520.3 hPa WNW 4.8 mph /  7.7 km/h 11.3 mph /  18.2 km/h 67 % 0.0 in /  0 mm
00:57 11.7 °F /  -11.3 °C 5.8 °F /  -14.6 °C 1019.5 in /  34520.3 hPa NW 4.8 mph /  7.7 km/h 9.7 mph /  15.6 km/h 67 % 0.0 in /  0 mm
01:02 11.5 °F /  -11.4 °C 5.8 °F /  -14.6 °C 1019.9 in /  34533.8 hPa WNW 3.2 mph /  5.1 km/h 9.7 mph /  15.6 km/h 68 % 0.0 in /  0 mm
01:12 11.3 °F /  -11.5 °C 5.6 °F /  -14.7 °C 1019.9 in /  34533.8 hPa WNW 4.8 mph /  7.7 km/h 11.3 mph /  18.2 km/h 68 % 0.0 in /  0 mm
01:17 11.3 °F /  -11.5 °C 5.6 °F /  -14.7 °C 1019.9 in /  34533.8 hPa WNW 3.2 mph /  5.1 km/h 11.3 mph /  18.2 km/h 68 % 0.0 in /  0 mm
01:22 11.2 °F /  -11.6 °C 5.7 °F /  -14.6 °C 1019.9 in /  34533.8 hPa NW 4.8 mph /  7.7 km/h 14.5 mph /  23.3 km/h 69 % 0.0 in /  0 mm
01:32 11.1 °F /  -11.6 °C 5.8 °F /  -14.6 °C 1019.9 in /  34533.8 hPa NNW 4.8 mph /  7.7 km/h 14.5 mph /  23.3 km/h 70 % 0.0 in /  0 mm
01:37 10.9 °F /  -11.7 °C 5.6 °F /  -14.7 °C 1019.9 in /  34533.8 hPa NW 3.2 mph /  5.1 km/h 12.9 mph /  20.8 km/h 70 % 0.0 in /  0 mm
01:42 10.8 °F /  -11.8 °C 5.5 °F /  -14.7 °C 1019.5 in /  34520.3 hPa NW 1.6 mph /  2.6 km/h 11.3 mph /  18.2 km/h 70 % 0.0 in /  0 mm
01:47 10.7 °F /  -11.8 °C 5.7 °F /  -14.6 °C 1019.5 in /  34520.3 hPa NW 3.2 mph /  5.1 km/h 11.3 mph /  18.2 km/h 71 % 0.0 in /  0 mm
01:52 10.6 °F /  -11.9 °C 5.6 °F /  -14.7 °C 1019.5 in /  34520.3 hPa NW 1.6 mph /  2.6 km/h 9.7 mph /  15.6 km/h 71 % 0.0 in /  0 mm
01:57 10.4 °F /  -12 °C 5.6 °F /  -14.7 °C 1019.5 in /  34520.3 hPa NW 4.8 mph /  7.7 km/h 8.0 mph /  12.9 km/h 72 % 0.0 in /  0 mm
02:02 10.3 °F /  -12.1 °C 5.7 °F /  -14.6 °C 1019.5 in /  34520.3 hPa NNW 1.6 mph /  2.6 km/h 9.7 mph /  15.6 km/h 73 % 0.0 in /  0 mm
02:07 10.2 °F /  -12.1 °C 5.6 °F /  -14.7 °C 1019.5 in /  34520.3 hPa NW 1.6 mph /  2.6 km/h 9.7 mph /  15.6 km/h 73 % 0.0 in /  0 mm
02:12 10.1 °F /  -12.2 °C 5.7 °F /  -14.6 °C 1019.5 in /  34520.3 hPa WNW 3.2 mph /  5.1 km/h 9.7 mph /  15.6 km/h 74 % 0.0 in /  0 mm
02:17 9.9 °F /  -12.3 °C 5.5 °F /  -14.7 °C 1019.5 in /  34520.3 hPa NNE 3.2 mph /  5.1 km/h 6.4 mph /  10.3 km/h 74 % 0.0 in /  0 mm
02:22 9.8 °F /  -12.3 °C 5.6 °F /  -14.7 °C 1019.5 in /  34520.3 hPa Calm   4.8 mph /  7.7 km/h 75 % 0.0 in /  0 mm
02:27 9.6 °F /  -12.4 °C 5.4 °F /  -14.8 °C 1019.5 in /  34520.3 hPa North 3.2 mph /  5.1 km/h 3.2 mph /  5.1 km/h 75 % 0.0 in /  0 mm
02:32 9.3 °F /  -12.6 °C 5.5 °F /  -14.7 °C 1019.5 in /  34520.3 hPa NNE 3.2 mph /  5.1 km/h 6.4 mph /  10.3 km/h 77 % 0.0 in /  0 mm
02:42 8.9 °F /  -12.8 °C 5.5 °F /  -14.7 °C 1019.5 in /  34520.3 hPa North 3.2 mph /  5.1 km/h 8.0 mph /  12.9 km/h 79 % 0.0 in /  0 mm
02:47 8.8 °F /  -12.9 °C 5.5 °F /  -14.7 °C 1019.5 in /  34520.3 hPa NNW 1.6 mph /  2.6 km/h 8.0 mph /  12.9 km/h 80 % 0.0 in /  0 mm
02:52 8.7 °F /  -12.9 °C 5.6 °F /  -14.7 °C 1019.5 in /  34520.3 hPa NNW 3.2 mph /  5.1 km/h 8.0 mph /  12.9 km/h 81 % 0.0 in /  0 mm
03:02 8.4 °F /  -13.1 °C 5.5 °F /  -14.7 °C 1019.5 in /  34520.3 hPa NNE 1.6 mph /  2.6 km/h 6.4 mph /  10.3 km/h 82 % 0.0 in /  0 mm
03:12 8.3 °F /  -13.2 °C 5.6 °F /  -14.7 °C 1019.5 in /  34520.3 hPa Calm   6.4 mph /  10.3 km/h 83 % 0.0 in /  0 mm
03:17 8.3 °F /  -13.2 °C 5.6 °F /  -14.7 °C 1019.5 in /  34520.3 hPa Calm   4.8 mph /  7.7 km/h 83 % 0.0 in /  0 mm
03:22 8.2 °F /  -13.2 °C 5.5 °F /  -14.7 °C 1019.5 in /  34520.3 hPa Calm   4.8 mph /  7.7 km/h 83 % 0.0 in /  0 mm
03:27 8.0 °F /  -13.3 °C 5.5 °F /  -14.7 °C 1019.5 in /  34520.3 hPa North 1.6 mph /  2.6 km/h 4.8 mph /  7.7 km/h 84 % 0.0 in /  0 mm
03:32 7.9 °F /  -13.4 °C 5.5 °F /  -14.7 °C 1019.5 in /  34520.3 hPa NNW 1.6 mph /  2.6 km/h 8.0 mph /  12.9 km/h 85 % 0.0 in /  0 mm
03:37 7.9 °F /  -13.4 °C 5.7 °F /  -14.6 °C 1019.5 in /  34520.3 hPa North 1.6 mph /  2.6 km/h 8.0 mph /  12.9 km/h 86 % 0.0 in /  0 mm
03:42 7.8 °F /  -13.4 °C 5.6 °F /  -14.7 °C 1019.5 in /  34520.3 hPa NNE 3.2 mph /  5.1 km/h 8.0 mph /  12.9 km/h 86 % 0.0 in /  0 mm
03:47 7.6 °F /  -13.6 °C 5.4 °F /  -14.8 °C 1019.5 in /  34520.3 hPa NNW 3.2 mph /  5.1 km/h 4.8 mph /  7.7 km/h 86 % 0.0 in /  0 mm
03:52 7.5 °F /  -13.6 °C 5.5 °F /  -14.7 °C 1019.5 in /  34520.3 hPa North 3.2 mph /  5.1 km/h 6.4 mph /  10.3 km/h 87 % 0.0 in /  0 mm
03:57 7.4 °F /  -13.7 °C 5.4 °F /  -14.8 °C 1019.5 in /  34520.3 hPa NNE 1.6 mph /  2.6 km/h 6.4 mph /  10.3 km/h 87 % 0.0 in /  0 mm
04:02 7.3 °F /  -13.7 °C 5.4 °F /  -14.8 °C 1019.5 in /  34520.3 hPa Calm   6.4 mph /  10.3 km/h 88 % 0.0 in /  0 mm
04:12 7.4 °F /  -13.7 °C 5.7 °F /  -14.6 °C 1019.5 in /  34520.3 hPa North 4.8 mph /  7.7 km/h 8.0 mph /  12.9 km/h 89 % 0.0 in /  0 mm
04:17 7.6 °F /  -13.6 °C 5.7 °F /  -14.6 °C 1019.5 in /  34520.3 hPa NNE 4.8 mph /  7.7 km/h 9.7 mph /  15.6 km/h 88 % 0.0 in /  0 mm
04:22 7.6 °F /  -13.6 °C 5.7 °F /  -14.6 °C 1019.5 in /  34520.3 hPa NNW 4.8 mph /  7.7 km/h 9.7 mph /  15.6 km/h 88 % 0.0 in /  0 mm
04:32 7.4 °F /  -13.7 °C 5.5 °F /  -14.7 °C 1019.9 in /  34533.8 hPa NNW 1.6 mph /  2.6 km/h 9.7 mph /  15.6 km/h 88 % 0.0 in /  0 mm
04:37 7.3 °F /  -13.7 °C 5.4 °F /  -14.8 °C 1019.9 in /  34533.8 hPa NW 1.6 mph /  2.6 km/h 6.4 mph /  10.3 km/h 88 % 0.0 in /  0 mm
04:42 7.3 °F /  -13.7 °C 5.4 °F /  -14.8 °C 1019.5 in /  34520.3 hPa WNW 3.2 mph /  5.1 km/h 4.8 mph /  7.7 km/h 88 % 0.0 in /  0 mm
04:47 7.2 °F /  -13.8 °C 5.3 °F /  -14.8 °C 1019.5 in /  34520.3 hPa NW 1.6 mph /  2.6 km/h 6.4 mph /  10.3 km/h 88 % 0.0 in /  0 mm
04:52 6.9 °F /  -13.9 °C 4.9 °F /  -15.1 °C 1019.5 in /  34520.3 hPa North 3.2 mph /  5.1 km/h 6.4 mph /  10.3 km/h 87 % 0.0 in /  0 mm
04:57 6.7 °F /  -14.1 °C 4.9 °F /  -15.1 °C 1019.5 in /  34520.3 hPa NW 3.2 mph /  5.1 km/h 6.4 mph /  10.3 km/h 88 % 0.0 in /  0 mm
05:02 6.7 °F /  -14.1 °C 5.0 °F /  -15 °C 1019.5 in /  34520.3 hPa NNW 3.2 mph /  5.1 km/h 6.4 mph /  10.3 km/h 89 % 0.0 in /  0 mm
05:07 6.6 °F /  -14.1 °C 4.9 °F /  -15.1 °C 1019.5 in /  34520.3 hPa NNW 1.6 mph /  2.6 km/h 4.8 mph /  7.7 km/h 89 % 0.0 in /  0 mm
05:12 6.6 °F /  -14.1 °C 4.9 °F /  -15.1 °C 1019.5 in /  34520.3 hPa NNW 3.2 mph /  5.1 km/h 4.8 mph /  7.7 km/h 89 % 0.0 in /  0 mm
05:17 6.6 °F /  -14.1 °C 5.1 °F /  -14.9 °C 1019.9 in /  34533.8 hPa NNW 1.6 mph /  2.6 km/h 4.8 mph /  7.7 km/h 90 % 0.0 in /  0 mm
05:22 6.5 °F /  -14.2 °C 4.8 °F /  -15.1 °C 1019.5 in /  34520.3 hPa WNW 3.2 mph /  5.1 km/h 4.8 mph /  7.7 km/h 89 % 0.0 in /  0 mm
05:32 6.4 °F /  -14.2 °C 4.9 °F /  -15.1 °C 1019.5 in /  34520.3 hPa NW 1.6 mph /  2.6 km/h 4.8 mph /  7.7 km/h 90 % 0.0 in /  0 mm
05:37 6.4 °F /  -14.2 °C 4.9 °F /  -15.1 °C 1019.5 in /  34520.3 hPa Calm   4.8 mph /  7.7 km/h 90 % 0.0 in /  0 mm
05:42 6.4 °F /  -14.2 °C 5.0 °F /  -15 °C 1019.9 in /  34533.8 hPa NNW 1.6 mph /  2.6 km/h 4.8 mph /  7.7 km/h 91 % 0.0 in /  0 mm
05:47 6.4 °F /  -14.2 °C 5.0 °F /  -15 °C 1019.9 in /  34533.8 hPa Calm   3.2 mph /  5.1 km/h 91 % 0.0 in /  0 mm
05:52 6.3 °F /  -14.3 °C 4.9 °F /  -15.1 °C 1019.9 in /  34533.8 hPa Calm   3.2 mph /  5.1 km/h 91 % 0.0 in /  0 mm
06:02 6.2 °F /  -14.3 °C 4.8 °F /  -15.1 °C 1019.5 in /  34520.3 hPa Calm   3.2 mph /  5.1 km/h 91 % 0.0 in /  0 mm
06:07 6.2 °F /  -14.3 °C 4.8 °F /  -15.1 °C 1019.5 in /  34520.3 hPa Calm   3.2 mph /  5.1 km/h 91 % 0.0 in /  0 mm
06:12 6.1 °F /  -14.4 °C 4.7 °F /  -15.2 °C 1019.5 in /  34520.3 hPa Calm   1.6 mph /  2.6 km/h 91 % 0.0 in /  0 mm
06:17 6.1 °F /  -14.4 °C 4.7 °F /  -15.2 °C 1019.9 in /  34533.8 hPa Calm   1.6 mph /  2.6 km/h 91 % 0.0 in /  0 mm
06:22 6.1 °F /  -14.4 °C 4.7 °F /  -15.2 °C 1019.9 in /  34533.8 hPa NNW 1.6 mph /  2.6 km/h 1.6 mph /  2.6 km/h 91 % 0.0 in /  0 mm
06:27 6.1 °F /  -14.4 °C 4.9 °F /  -15.1 °C 1019.5 in /  34520.3 hPa NW 1.6 mph /  2.6 km/h 1.6 mph /  2.6 km/h 92 % 0.0 in /  0 mm
06:32 6.1 °F /  -14.4 °C 4.9 °F /  -15.1 °C 1019.9 in /  34533.8 hPa NW 3.2 mph /  5.1 km/h 4.8 mph /  7.7 km/h 92 % 0.0 in /  0 mm
06:37 6.1 °F /  -14.4 °C 4.9 °F /  -15.1 °C 1019.9 in /  34533.8 hPa NNW 1.6 mph /  2.6 km/h 4.8 mph /  7.7 km/h 92 % 0.0 in /  0 mm
06:42 6.2 °F /  -14.3 °C 5.0 °F /  -15 °C 1019.9 in /  34533.8 hPa NNW 1.6 mph /  2.6 km/h 4.8 mph /  7.7 km/h 92 % 0.0 in /  0 mm
06:47 6.2 °F /  -14.3 °C 5.0 °F /  -15 °C 1019.9 in /  34533.8 hPa NNW 1.6 mph /  2.6 km/h 4.8 mph /  7.7 km/h 92 % 0.0 in /  0 mm
06:52 6.1 °F /  -14.4 °C 4.9 °F /  -15.1 °C 1019.9 in /  34533.8 hPa NNW 1.6 mph /  2.6 km/h 4.8 mph /  7.7 km/h 92 % 0.0 in /  0 mm
06:57 5.9 °F /  -14.5 °C 4.7 °F /  -15.2 °C 1019.9 in /  34533.8 hPa Calm   4.8 mph /  7.7 km/h 92 % 0.0 in /  0 mm
07:02 5.9 °F /  -14.5 °C 4.7 °F /  -15.2 °C 1019.9 in /  34533.8 hPa North 1.6 mph /  2.6 km/h 3.2 mph /  5.1 km/h 92 % 0.0 in /  0 mm
07:12 5.8 °F /  -14.6 °C 4.8 °F /  -15.1 °C 1019.9 in /  34533.8 hPa Calm   1.6 mph /  2.6 km/h 93 % 0.0 in /  0 mm
07:17 5.8 °F /  -14.6 °C 4.8 °F /  -15.1 °C 1019.9 in /  34533.8 hPa Calm   1.6 mph /  2.6 km/h 93 % 0.0 in /  0 mm
07:22 5.8 °F /  -14.6 °C 4.8 °F /  -15.1 °C 1019.9 in /  34533.8 hPa Calm   3.2 mph /  5.1 km/h 93 % 0.0 in /  0 mm
07:32 5.9 °F /  -14.5 °C 4.9 °F /  -15.1 °C 1019.9 in /  34533.8 hPa Calm   3.2 mph /  5.1 km/h 93 % 0.0 in /  0 mm
07:37 5.9 °F /  -14.5 °C 4.9 °F /  -15.1 °C 1019.9 in /  34533.8 hPa NW 1.6 mph /  2.6 km/h 3.2 mph /  5.1 km/h 93 % 0.0 in /  0 mm
07:42 5.9 °F /  -14.5 °C 4.9 °F /  -15.1 °C 1019.9 in /  34533.8 hPa NW 1.6 mph /  2.6 km/h 4.8 mph /  7.7 km/h 93 % 0.0 in /  0 mm
07:47 6.0 °F /  -14.4 °C 5.0 °F /  -15 °C 1019.9 in /  34533.8 hPa NW 1.6 mph /  2.6 km/h 4.8 mph /  7.7 km/h 93 % 0.0 in /  0 mm
07:52 6.1 °F /  -14.4 °C 5.1 °F /  -14.9 °C 1019.9 in /  34533.8 hPa NW 1.6 mph /  2.6 km/h 4.8 mph /  7.7 km/h 93 % 0.0 in /  0 mm
08:02 6.2 °F /  -14.3 °C 5.2 °F /  -14.9 °C 1020.2 in /  34544 hPa Calm   4.8 mph /  7.7 km/h 93 % 0.0 in /  0 mm
08:07 6.4 °F /  -14.2 °C 5.2 °F /  -14.9 °C 1020.2 in /  34544 hPa Calm   4.8 mph /  7.7 km/h 92 % 0.0 in /  0 mm
08:12 6.6 °F /  -14.1 °C 5.4 °F /  -14.8 °C 1020.2 in /  34544 hPa Calm   1.6 mph /  2.6 km/h 92 % 0.0 in /  0 mm
08:17 6.7 °F /  -14.1 °C 5.5 °F /  -14.7 °C 1020.2 in /  34544 hPa Calm   1.6 mph /  2.6 km/h 92 % 0.0 in /  0 mm
08:22 6.9 °F /  -13.9 °C 5.7 °F /  -14.6 °C 1020.5 in /  34554.1 hPa Calm   1.6 mph /  2.6 km/h 92 % 0.0 in /  0 mm
08:27 7.1 °F /  -13.8 °C 5.7 °F /  -14.6 °C 1020.2 in /  34544 hPa WNW 1.6 mph /  2.6 km/h 1.6 mph /  2.6 km/h 91 % 0.0 in /  0 mm
08:32 7.2 °F /  -13.8 °C 5.8 °F /  -14.6 °C 1020.5 in /  34554.1 hPa Calm   3.2 mph /  5.1 km/h 91 % 0.0 in /  0 mm
08:42 7.6 °F /  -13.6 °C 6.1 °F /  -14.4 °C 1020.2 in /  34544 hPa Calm   3.2 mph /  5.1 km/h 90 % 0.0 in /  0 mm
08:47 7.8 °F /  -13.4 °C 6.1 °F /  -14.4 °C 1020.2 in /  34544 hPa Calm   3.2 mph /  5.1 km/h 89 % 0.0 in /  0 mm
08:52 8.1 °F /  -13.3 °C 6.4 °F /  -14.2 °C 1020.2 in /  34544 hPa Calm   3.2 mph /  5.1 km/h 89 % 0.0 in /  0 mm
09:02 8.7 °F /  -12.9 °C 6.5 °F /  -14.2 °C 1020.2 in /  34544 hPa Calm   1.6 mph /  2.6 km/h 86 % 0.0 in /  0 mm
09:07 9.0 °F /  -12.8 °C 6.8 °F /  -14 °C 1020.2 in /  34544 hPa Calm     86 % 0.0 in /  0 mm
09:12 9.4 °F /  -12.6 °C 7.0 °F /  -13.9 °C 1020.2 in /  34544 hPa Calm     85 % 0.0 in /  0 mm
09:17 9.2 °F /  -12.7 °C 6.5 °F /  -14.2 °C 1020.2 in /  34544 hPa Calm     83 % 0.0 in /  0 mm
09:22 9.2 °F /  -12.7 °C 6.5 °F /  -14.2 °C 1020.2 in /  34544 hPa WNW 4.8 mph /  7.7 km/h 6.4 mph /  10.3 km/h 83 % 0.0 in /  0 mm
09:27 9.2 °F /  -12.7 °C 6.6 °F /  -14.1 °C 1020.2 in /  34544 hPa Calm   6.4 mph /  10.3 km/h 84 % 0.0 in /  0 mm
09:32 9.6 °F /  -12.4 °C 6.9 °F /  -13.9 °C 1020.2 in /  34544 hPa NW 3.2 mph /  5.1 km/h 6.4 mph /  10.3 km/h 83 % 0.0 in /  0 mm
09:42 9.7 °F /  -12.4 °C 6.6 °F /  -14.1 °C 1020.2 in /  34544 hPa WNW 1.6 mph /  2.6 km/h 6.4 mph /  10.3 km/h 81 % 0.0 in /  0 mm
09:47 9.8 °F /  -12.3 °C 6.5 °F /  -14.2 °C 1020.2 in /  34544 hPa Calm   6.4 mph /  10.3 km/h 80 % 0.0 in /  0 mm
09:52 9.8 °F /  -12.3 °C 6.7 °F /  -14.1 °C 1020.2 in /  34544 hPa NNW 3.2 mph /  5.1 km/h 8.0 mph /  12.9 km/h 81 % 0.0 in /  0 mm
09:57 9.9 °F /  -12.3 °C 6.6 °F /  -14.1 °C 1020.2 in /  34544 hPa Calm   9.7 mph /  15.6 km/h 80 % 0.0 in /  0 mm
10:02 10.1 °F /  -12.2 °C 6.6 °F /  -14.1 °C 1020.2 in /  34544 hPa WNW 1.6 mph /  2.6 km/h 12.9 mph /  20.8 km/h 79 % 0.0 in /  0 mm
10:12 10.6 °F /  -11.9 °C 7.1 °F /  -13.8 °C 1020.2 in /  34544 hPa WNW 3.2 mph /  5.1 km/h 12.9 mph /  20.8 km/h 79 % 0.0 in /  0 mm
10:17 11.0 °F /  -11.7 °C 7.1 °F /  -13.8 °C 1020.2 in /  34544 hPa Calm   4.8 mph /  7.7 km/h 77 % 0.0 in /  0 mm
10:22 11.5 °F /  -11.4 °C 7.2 °F /  -13.8 °C 1020.2 in /  34544 hPa ENE 1.6 mph /  2.6 km/h 3.2 mph /  5.1 km/h 75 % 0.0 in /  0 mm
10:27 11.4 °F /  -11.4 °C 6.9 °F /  -13.9 °C 1020.2 in /  34544 hPa NE 3.2 mph /  5.1 km/h 3.2 mph /  5.1 km/h 74 % 0.0 in /  0 mm
10:32 11.3 °F /  -11.5 °C 7.0 °F /  -13.9 °C 1020.2 in /  34544 hPa NNW 3.2 mph /  5.1 km/h 3.2 mph /  5.1 km/h 75 % 0.0 in /  0 mm
10:37 11.4 °F /  -11.4 °C 7.1 °F /  -13.8 °C 1020.2 in /  34544 hPa Calm   6.4 mph /  10.3 km/h 75 % 0.0 in /  0 mm
10:42 11.8 °F /  -11.2 °C 7.3 °F /  -13.7 °C 1020.2 in /  34544 hPa East 1.6 mph /  2.6 km/h 6.4 mph /  10.3 km/h 74 % 0.0 in /  0 mm
10:47 11.8 °F /  -11.2 °C 7.1 °F /  -13.8 °C 1020.2 in /  34544 hPa North 3.2 mph /  5.1 km/h 6.4 mph /  10.3 km/h 73 % 0.0 in /  0 mm
10:52 11.8 °F /  -11.2 °C 6.9 °F /  -13.9 °C 1020.2 in /  34544 hPa West 3.2 mph /  5.1 km/h 3.2 mph /  5.1 km/h 72 % 0.0 in /  0 mm
10:57 11.6 °F /  -11.3 °C 6.7 °F /  -14.1 °C 1020.2 in /  34544 hPa NNW 8.0 mph /  12.9 km/h 8.0 mph /  12.9 km/h 72 % 0.0 in /  0 mm
11:02 11.7 °F /  -11.3 °C 6.8 °F /  -14 °C 1020.2 in /  34544 hPa Calm   6.4 mph /  10.3 km/h 72 % 0.0 in /  0 mm
11:12 12.4 °F /  -10.9 °C 7.3 °F /  -13.7 °C 1020.2 in /  34544 hPa West 1.6 mph /  2.6 km/h 11.3 mph /  18.2 km/h 71 % 0.0 in /  0 mm
11:17 12.4 °F /  -10.9 °C 6.9 °F /  -13.9 °C 1020.2 in /  34544 hPa WNW 3.2 mph /  5.1 km/h 9.7 mph /  15.6 km/h 69 % 0.0 in /  0 mm
11:22 12.3 °F /  -10.9 °C 7.0 °F /  -13.9 °C 1020.2 in /  34544 hPa West 1.6 mph /  2.6 km/h 9.7 mph /  15.6 km/h 70 % 0.0 in /  0 mm
11:27 12.6 °F /  -10.8 °C 7.3 °F /  -13.7 °C 1020.2 in /  34544 hPa Calm   9.7 mph /  15.6 km/h 70 % 0.0 in /  0 mm
11:32 13.1 °F /  -10.5 °C 7.8 °F /  -13.4 °C 1020.2 in /  34544 hPa North 1.6 mph /  2.6 km/h 8.0 mph /  12.9 km/h 70 % 0.0 in /  0 mm
11:37 13.2 °F /  -10.4 °C 7.4 °F /  -13.7 °C 1020.2 in /  34544 hPa Calm   6.4 mph /  10.3 km/h 68 % 0.0 in /  0 mm
11:42 13.3 °F /  -10.4 °C 7.3 °F /  -13.7 °C 1020.2 in /  34544 hPa NE 6.4 mph /  10.3 km/h 8.0 mph /  12.9 km/h 67 % 0.0 in /  0 mm
11:47 13.0 °F /  -10.6 °C 7.4 °F /  -13.7 °C 1020.2 in /  34544 hPa ENE 4.8 mph /  7.7 km/h 9.7 mph /  15.6 km/h 69 % 0.0 in /  0 mm
11:52 12.9 °F /  -10.6 °C 6.9 °F /  -13.9 °C 1020.2 in /  34544 hPa Calm   9.7 mph /  15.6 km/h 67 % 0.0 in /  0 mm
11:57 13.2 °F /  -10.4 °C 7.4 °F /  -13.7 °C 1020.2 in /  34544 hPa West 1.6 mph /  2.6 km/h 8.0 mph /  12.9 km/h 68 % 0.0 in /  0 mm
12:07 13.4 °F /  -10.3 °C 7.2 °F /  -13.8 °C 1020.2 in /  34544 hPa West 1.6 mph /  2.6 km/h 8.0 mph /  12.9 km/h 66 % 0.0 in /  0 mm
12:12 13.4 °F /  -10.3 °C 7.2 °F /  -13.8 °C 1020.2 in /  34544 hPa Calm   8.0 mph /  12.9 km/h 66 % 0.0 in /  0 mm
12:17 13.7 °F /  -10.2 °C 7.2 °F /  -13.8 °C 1020.2 in /  34544 hPa Calm   8.0 mph /  12.9 km/h 65 % 0.0 in /  0 mm
12:22 13.6 °F /  -10.2 °C 7.1 °F /  -13.8 °C 1020.2 in /  34544 hPa NNE 8.0 mph /  12.9 km/h 8.0 mph /  12.9 km/h 65 % 0.0 in /  0 mm
12:27 13.5 °F /  -10.3 °C 7.3 °F /  -13.7 °C 1020.2 in /  34544 hPa West 1.6 mph /  2.6 km/h 11.3 mph /  18.2 km/h 66 % 0.0 in /  0 mm
12:32 13.8 °F /  -10.1 °C 7.3 °F /  -13.7 °C 1020.2 in /  34544 hPa Calm   11.3 mph /  18.2 km/h 65 % 0.0 in /  0 mm
12:37 14.1 °F /  -9.9 °C 7.6 °F /  -13.6 °C 1019.9 in /  34533.8 hPa WNW 9.7 mph /  15.6 km/h 11.3 mph /  18.2 km/h 65 % 0.0 in /  0 mm
12:42 14.0 °F /  -10 °C 7.3 °F /  -13.7 °C 1019.9 in /  34533.8 hPa WNW 3.2 mph /  5.1 km/h 9.7 mph /  15.6 km/h 64 % 0.0 in /  0 mm
12:52 14.2 °F /  -9.9 °C 7.3 °F /  -13.7 °C 1019.9 in /  34533.8 hPa NNE 3.2 mph /  5.1 km/h 11.3 mph /  18.2 km/h 63 % 0.0 in /  0 mm
12:57 14.5 °F /  -9.7 °C 7.5 °F /  -13.6 °C 1019.9 in /  34533.8 hPa WNW 3.2 mph /  5.1 km/h 11.3 mph /  18.2 km/h 63 % 0.0 in /  0 mm
13:02 14.6 °F /  -9.7 °C 7.4 °F /  -13.7 °C 1019.9 in /  34533.8 hPa NNW 4.8 mph /  7.7 km/h 11.3 mph /  18.2 km/h 62 % 0.0 in /  0 mm
13:07 14.5 °F /  -9.7 °C 7.1 °F /  -13.8 °C 1019.9 in /  34533.8 hPa NE 4.8 mph /  7.7 km/h 11.3 mph /  18.2 km/h 61 % 0.0 in /  0 mm
13:12 14.6 °F /  -9.7 °C 7.6 °F /  -13.6 °C 1019.9 in /  34533.8 hPa NNW 4.8 mph /  7.7 km/h 11.3 mph /  18.2 km/h 63 % 0.0 in /  0 mm
13:17 14.9 °F /  -9.5 °C 7.9 °F /  -13.4 °C 1019.9 in /  34533.8 hPa NNW 4.8 mph /  7.7 km/h 8.0 mph /  12.9 km/h 63 % 0.0 in /  0 mm
13:22 15.0 °F /  -9.4 °C 7.8 °F /  -13.4 °C 1019.9 in /  34533.8 hPa Calm   8.0 mph /  12.9 km/h 62 % 0.0 in /  0 mm
13:32 14.8 °F /  -9.6 °C 7.6 °F /  -13.6 °C 1019.9 in /  34533.8 hPa NNW 8.0 mph /  12.9 km/h 9.7 mph /  15.6 km/h 62 % 0.0 in /  0 mm
13:37 15.1 °F /  -9.4 °C 7.4 °F /  -13.7 °C 1019.9 in /  34533.8 hPa NNE 1.6 mph /  2.6 km/h 11.3 mph /  18.2 km/h 60 % 0.0 in /  0 mm
13:42 15.3 °F /  -9.3 °C 7.8 °F /  -13.4 °C 1019.5 in /  34520.3 hPa Calm   11.3 mph /  18.2 km/h 61 % 0.0 in /  0 mm
13:47 15.5 °F /  -9.2 °C 8.2 °F /  -13.2 °C 1019.5 in /  34520.3 hPa NW 3.2 mph /  5.1 km/h 11.3 mph /  18.2 km/h 62 % 0.0 in /  0 mm
13:52 15.6 °F /  -9.1 °C 7.6 °F /  -13.6 °C 1019.5 in /  34520.3 hPa WSW 1.6 mph /  2.6 km/h 11.3 mph /  18.2 km/h 59 % 0.0 in /  0 mm
13:57 15.7 °F /  -9.1 °C 8.2 °F /  -13.2 °C 1019.5 in /  34520.3 hPa Calm   11.3 mph /  18.2 km/h 61 % 0.0 in /  0 mm
14:02 15.7 °F /  -9.1 °C 7.7 °F /  -13.5 °C 1019.5 in /  34520.3 hPa NNE 1.6 mph /  2.6 km/h 9.7 mph /  15.6 km/h 59 % 0.0 in /  0 mm
14:07 15.8 °F /  -9 °C 8.0 °F /  -13.3 °C 1019.5 in /  34520.3 hPa Calm   9.7 mph /  15.6 km/h 60 % 0.0 in /  0 mm
14:12 15.9 °F /  -8.9 °C 8.1 °F /  -13.3 °C 1019.2 in /  34510.1 hPa Calm   12.9 mph /  20.8 km/h 60 % 0.0 in /  0 mm
14:17 16.2 °F /  -8.8 °C 8.4 °F /  -13.1 °C 1019.5 in /  34520.3 hPa NE 3.2 mph /  5.1 km/h 12.9 mph /  20.8 km/h 60 % 0.0 in /  0 mm
14:22 16.0 °F /  -8.9 °C 8.5 °F /  -13.1 °C 1019.2 in /  34510.1 hPa NNE 11.3 mph /  18.2 km/h 14.5 mph /  23.3 km/h 61 % 0.0 in /  0 mm
14:32 16.1 °F /  -8.8 °C 8.6 °F /  -13 °C 1019.5 in /  34520.3 hPa WNW 6.4 mph /  10.3 km/h 12.9 mph /  20.8 km/h 61 % 0.0 in /  0 mm
14:37 16.8 °F /  -8.4 °C 9.0 °F /  -12.8 °C 1019.2 in /  34510.1 hPa Calm   12.9 mph /  20.8 km/h 60 % 0.0 in /  0 mm
14:42 16.7 °F /  -8.5 °C 8.4 °F /  -13.1 °C 1019.2 in /  34510.1 hPa WNW 4.8 mph /  7.7 km/h 12.9 mph /  20.8 km/h 58 % 0.0 in /  0 mm
14:47 16.7 °F /  -8.5 °C 8.6 °F /  -13 °C 1019.2 in /  34510.1 hPa NNW 6.4 mph /  10.3 km/h 12.9 mph /  20.8 km/h 59 % 0.0 in /  0 mm
14:52 16.6 °F /  -8.6 °C 8.6 °F /  -13 °C 1019.2 in /  34510.1 hPa NW 4.8 mph /  7.7 km/h 12.9 mph /  20.8 km/h 59 % 0.0 in /  0 mm
14:57 16.5 °F /  -8.6 °C 9.2 °F /  -12.7 °C 1019.2 in /  34510.1 hPa NW 3.2 mph /  5.1 km/h 12.9 mph /  20.8 km/h 62 % 0.0 in /  0 mm
15:02 16.8 °F /  -8.4 °C 9.5 °F /  -12.5 °C 1019.2 in /  34510.1 hPa North 8.0 mph /  12.9 km/h 12.9 mph /  20.8 km/h 62 % 0.0 in /  0 mm
15:07 16.3 °F /  -8.7 °C 8.3 °F /  -13.2 °C 1018.8 in /  34496.6 hPa NNE 6.4 mph /  10.3 km/h 11.3 mph /  18.2 km/h 59 % 0.0 in /  0 mm
15:12 16.2 °F /  -8.8 °C 8.7 °F /  -12.9 °C 1018.8 in /  34496.6 hPa NNE 6.4 mph /  10.3 km/h 12.9 mph /  20.8 km/h 61 % 0.0 in /  0 mm
15:17 16.4 °F /  -8.7 °C 8.6 °F /  -13 °C 1018.8 in /  34496.6 hPa WNW 6.4 mph /  10.3 km/h 16.1 mph /  25.9 km/h 60 % 0.0 in /  0 mm
15:22 16.3 °F /  -8.7 °C 8.3 °F /  -13.2 °C 1018.8 in /  34496.6 hPa NNE 1.6 mph /  2.6 km/h 16.1 mph /  25.9 km/h 59 % 0.0 in /  0 mm
15:32 16.4 °F /  -8.7 °C 8.9 °F /  -12.8 °C 1018.8 in /  34496.6 hPa WNW 4.8 mph /  7.7 km/h 16.1 mph /  25.9 km/h 61 % 0.0 in /  0 mm
15:42 16.7 °F /  -8.5 °C 8.9 °F /  -12.8 °C 1018.5 in /  34486.4 hPa NW 6.4 mph /  10.3 km/h 16.1 mph /  25.9 km/h 60 % 0.0 in /  0 mm
15:47 17.0 °F /  -8.3 °C 8.7 °F /  -12.9 °C 1018.5 in /  34486.4 hPa WNW 3.2 mph /  5.1 km/h 11.3 mph /  18.2 km/h 58 % 0.0 in /  0 mm
15:52 17.1 °F /  -8.3 °C 9.0 °F /  -12.8 °C 1018.5 in /  34486.4 hPa NNW 3.2 mph /  5.1 km/h 9.7 mph /  15.6 km/h 59 % 0.0 in /  0 mm
15:57 17.4 °F /  -8.1 °C 9.3 °F /  -12.6 °C 1018.2 in /  34476.3 hPa NE 11.3 mph /  18.2 km/h 11.3 mph /  18.2 km/h 59 % 0.0 in /  0 mm
16:02 17.5 °F /  -8.1 °C 9.4 °F /  -12.6 °C 1018.2 in /  34476.3 hPa NW 9.7 mph /  15.6 km/h 11.3 mph /  18.2 km/h 59 % 0.0 in /  0 mm
16:12 17.0 °F /  -8.3 °C 8.9 °F /  -12.8 °C 1018.5 in /  34486.4 hPa Calm   16.1 mph /  25.9 km/h 59 % 0.0 in /  0 mm
16:17 16.7 °F /  -8.5 °C 8.4 °F /  -13.1 °C 1018.2 in /  34476.3 hPa NE 6.4 mph /  10.3 km/h 12.9 mph /  20.8 km/h 58 % 0.0 in /  0 mm
16:22 16.4 °F /  -8.7 °C 8.4 °F /  -13.1 °C 1018.2 in /  34476.3 hPa Calm   12.9 mph /  20.8 km/h 59 % 0.0 in /  0 mm
16:32 17.0 °F /  -8.3 °C 8.9 °F /  -12.8 °C 1018.2 in /  34476.3 hPa East 1.6 mph /  2.6 km/h 11.3 mph /  18.2 km/h 59 % 0.0 in /  0 mm
16:37 17.2 °F /  -8.2 °C 9.1 °F /  -12.7 °C 1017.8 in /  34462.7 hPa North 9.7 mph /  15.6 km/h 12.9 mph /  20.8 km/h 59 % 0.0 in /  0 mm
16:42 17.3 °F /  -8.2 °C 9.2 °F /  -12.7 °C 1017.8 in /  34462.7 hPa NNE 8.0 mph /  12.9 km/h 12.9 mph /  20.8 km/h 59 % 0.0 in /  0 mm
16:47 17.4 °F /  -8.1 °C 9.1 °F /  -12.7 °C 1017.8 in /  34462.7 hPa NNE 8.0 mph /  12.9 km/h 12.9 mph /  20.8 km/h 58 % 0.0 in /  0 mm
16:52 17.1 °F /  -8.3 °C 8.8 °F /  -12.9 °C 1017.8 in /  34462.7 hPa North 1.6 mph /  2.6 km/h 12.9 mph /  20.8 km/h 58 % 0.0 in /  0 mm
16:57 17.2 °F /  -8.2 °C 9.1 °F /  -12.7 °C 1017.8 in /  34462.7 hPa ENE 8.0 mph /  12.9 km/h 12.9 mph /  20.8 km/h 59 % 0.0 in /  0 mm
17:02 17.4 °F /  -8.1 °C 8.8 °F /  -12.9 °C 1017.8 in /  34462.7 hPa NE 1.6 mph /  2.6 km/h 11.3 mph /  18.2 km/h 57 % 0.0 in /  0 mm
17:07 17.3 °F /  -8.2 °C 9.0 °F /  -12.8 °C 1017.8 in /  34462.7 hPa NNW 6.4 mph /  10.3 km/h 12.9 mph /  20.8 km/h 58 % 0.0 in /  0 mm
17:12 17.2 °F /  -8.2 °C 9.4 °F /  -12.6 °C 1017.8 in /  34462.7 hPa NW 3.2 mph /  5.1 km/h 14.5 mph /  23.3 km/h 60 % 0.0 in /  0 mm
17:17 17.4 °F /  -8.1 °C 9.1 °F /  -12.7 °C 1017.8 in /  34462.7 hPa NNW 4.8 mph /  7.7 km/h 14.5 mph /  23.3 km/h 58 % 0.0 in /  0 mm
17:27 17.1 °F /  -8.3 °C 8.5 °F /  -13.1 °C 1017.8 in /  34462.7 hPa WNW 1.6 mph /  2.6 km/h 9.7 mph /  15.6 km/h 57 % 0.0 in /  0 mm
17:32 17.6 °F /  -8 °C 9.5 °F /  -12.5 °C 1017.8 in /  34462.7 hPa West 4.8 mph /  7.7 km/h 8.0 mph /  12.9 km/h 59 % 0.0 in /  0 mm
17:37 17.4 °F /  -8.1 °C 8.8 °F /  -12.9 °C 1017.5 in /  34452.6 hPa NE 4.8 mph /  7.7 km/h 12.9 mph /  20.8 km/h 57 % 0.0 in /  0 mm
17:42 17.1 °F /  -8.3 °C 9.0 °F /  -12.8 °C 1017.8 in /  34462.7 hPa NNW 3.2 mph /  5.1 km/h 12.9 mph /  20.8 km/h 59 % 0.0 in /  0 mm
17:47 16.9 °F /  -8.4 °C 9.1 °F /  -12.7 °C 1017.8 in /  34462.7 hPa NE 12.9 mph /  20.8 km/h 14.5 mph /  23.3 km/h 60 % 0.0 in /  0 mm
17:52 16.7 °F /  -8.5 °C 9.1 °F /  -12.7 °C 1017.5 in /  34452.6 hPa NNE 11.3 mph /  18.2 km/h 17.7 mph /  28.5 km/h 61 % 0.0 in /  0 mm
17:57 16.7 °F /  -8.5 °C 9.4 °F /  -12.6 °C 1017.5 in /  34452.6 hPa North 4.8 mph /  7.7 km/h 17.7 mph /  28.5 km/h 62 % 0.0 in /  0 mm
18:02 16.7 °F /  -8.5 °C 8.9 °F /  -12.8 °C 1017.5 in /  34452.6 hPa NNE 3.2 mph /  5.1 km/h 16.1 mph /  25.9 km/h 60 % 0.0 in /  0 mm
18:07 16.5 °F /  -8.6 °C 9.0 °F /  -12.8 °C 1017.5 in /  34452.6 hPa NNW 8.0 mph /  12.9 km/h 20.9 mph /  33.6 km/h 61 % 0.0 in /  0 mm
18:12 16.6 °F /  -8.6 °C 8.6 °F /  -13 °C 1017.5 in /  34452.6 hPa NNW 4.8 mph /  7.7 km/h 20.9 mph /  33.6 km/h 59 % 0.0 in /  0 mm
18:17 16.6 °F /  -8.6 °C 8.8 °F /  -12.9 °C 1017.5 in /  34452.6 hPa NNE 3.2 mph /  5.1 km/h 20.9 mph /  33.6 km/h 60 % 0.0 in /  0 mm
18:22 16.5 °F /  -8.6 °C 8.7 °F /  -12.9 °C 1017.5 in /  34452.6 hPa NNE 4.8 mph /  7.7 km/h 14.5 mph /  23.3 km/h 60 % 0.0 in /  0 mm
18:27 16.5 °F /  -8.6 °C 9.0 °F /  -12.8 °C 1017.5 in /  34452.6 hPa NW 8.0 mph /  12.9 km/h 17.7 mph /  28.5 km/h 61 % 0.0 in /  0 mm
18:32 16.3 °F /  -8.7 °C 8.8 °F /  -12.9 °C 1017.5 in /  34452.6 hPa NNE 3.2 mph /  5.1 km/h 17.7 mph /  28.5 km/h 61 % 0.0 in /  0 mm
18:37 16.2 °F /  -8.8 °C 8.4 °F /  -13.1 °C 1017.5 in /  34452.6 hPa NNE 6.4 mph /  10.3 km/h 17.7 mph /  28.5 km/h 60 % 0.0 in /  0 mm
18:47 16.1 °F /  -8.8 °C 8.3 °F /  -13.2 °C 1017.5 in /  34452.6 hPa NE 4.8 mph /  7.7 km/h 12.9 mph /  20.8 km/h 60 % 0.0 in /  0 mm
18:52 16.1 °F /  -8.8 °C 8.1 °F /  -13.3 °C 1017.5 in /  34452.6 hPa NNE 11.3 mph /  18.2 km/h 12.9 mph /  20.8 km/h 59 % 0.0 in /  0 mm
18:57 16.2 °F /  -8.8 °C 8.7 °F /  -12.9 °C 1017.5 in /  34452.6 hPa NNE 3.2 mph /  5.1 km/h 14.5 mph /  23.3 km/h 61 % 0.0 in /  0 mm
19:02 16.4 °F /  -8.7 °C 8.9 °F /  -12.8 °C 1017.5 in /  34452.6 hPa North 1.6 mph /  2.6 km/h 14.5 mph /  23.3 km/h 61 % 0.0 in /  0 mm
19:12 16.3 °F /  -8.7 °C 8.5 °F /  -13.1 °C 1017.5 in /  34452.6 hPa NNE 6.4 mph /  10.3 km/h 11.3 mph /  18.2 km/h 60 % 0.0 in /  0 mm
19:17 16.1 °F /  -8.8 °C 8.6 °F /  -13 °C 1017.5 in /  34452.6 hPa North 9.7 mph /  15.6 km/h 14.5 mph /  23.3 km/h 61 % 0.0 in /  0 mm
19:22 15.9 °F /  -8.9 °C 8.4 °F /  -13.1 °C 1017.5 in /  34452.6 hPa NE 11.3 mph /  18.2 km/h 16.1 mph /  25.9 km/h 61 % 0.0 in /  0 mm
19:32 15.8 °F /  -9 °C 8.5 °F /  -13.1 °C 1017.5 in /  34452.6 hPa NNE 3.2 mph /  5.1 km/h 16.1 mph /  25.9 km/h 62 % 0.0 in /  0 mm
19:37 15.7 °F /  -9.1 °C 8.7 °F /  -12.9 °C 1017.5 in /  34452.6 hPa North 6.4 mph /  10.3 km/h 14.5 mph /  23.3 km/h 63 % 0.0 in /  0 mm
19:42 15.5 °F /  -9.2 °C 8.7 °F /  -12.9 °C 1017.5 in /  34452.6 hPa NE 4.8 mph /  7.7 km/h 14.5 mph /  23.3 km/h 64 % 0.0 in /  0 mm
19:47 15.4 °F /  -9.2 °C 8.4 °F /  -13.1 °C 1017.5 in /  34452.6 hPa NE 6.4 mph /  10.3 km/h 14.5 mph /  23.3 km/h 63 % 0.0 in /  0 mm
19:52 15.3 °F /  -9.3 °C 8.5 °F /  -13.1 °C 1017.5 in /  34452.6 hPa North 6.4 mph /  10.3 km/h 12.9 mph /  20.8 km/h 64 % 0.0 in /  0 mm
19:57 15.1 °F /  -9.4 °C 8.3 °F /  -13.2 °C 1017.5 in /  34452.6 hPa NNE 8.0 mph /  12.9 km/h 14.5 mph /  23.3 km/h 64 % 0.0 in /  0 mm
20:02 14.9 °F /  -9.5 °C 8.4 °F /  -13.1 °C 1017.5 in /  34452.6 hPa NNE 6.4 mph /  10.3 km/h 14.5 mph /  23.3 km/h 65 % 0.0 in /  0 mm
20:12 14.4 °F /  -9.8 °C 8.1 °F /  -13.3 °C 1017.8 in /  34462.7 hPa NNE 9.7 mph /  15.6 km/h 12.9 mph /  20.8 km/h 66 % 0.0 in /  0 mm
20:17 14.2 °F /  -9.9 °C 7.9 °F /  -13.4 °C 1017.5 in /  34452.6 hPa NNE 11.3 mph /  18.2 km/h 12.9 mph /  20.8 km/h 66 % 0.0 in /  0 mm
20:22 13.9 °F /  -10.1 °C 7.9 °F /  -13.4 °C 1017.8 in /  34462.7 hPa North 4.8 mph /  7.7 km/h 12.9 mph /  20.8 km/h 67 % 0.0 in /  0 mm
20:27 13.6 °F /  -10.2 °C 7.8 °F /  -13.4 °C 1017.8 in /  34462.7 hPa NNE 6.4 mph /  10.3 km/h 12.9 mph /  20.8 km/h 68 % 0.0 in /  0 mm
20:32 13.4 °F /  -10.3 °C 7.8 °F /  -13.4 °C 1017.8 in /  34462.7 hPa NNE 6.4 mph /  10.3 km/h 12.9 mph /  20.8 km/h 69 % 0.0 in /  0 mm
20:42 13.1 °F /  -10.5 °C 7.5 °F /  -13.6 °C 1017.8 in /  34462.7 hPa NW 1.6 mph /  2.6 km/h 17.7 mph /  28.5 km/h 69 % 0.0 in /  0 mm
20:47 13.0 °F /  -10.6 °C 7.7 °F /  -13.5 °C 1017.8 in /  34462.7 hPa Calm   17.7 mph /  28.5 km/h 70 % 0.0 in /  0 mm
20:52 12.9 °F /  -10.6 °C 7.6 °F /  -13.6 °C 1017.8 in /  34462.7 hPa NNE 1.6 mph /  2.6 km/h 12.9 mph /  20.8 km/h 70 % 0.0 in /  0 mm
20:57 12.9 °F /  -10.6 °C 7.6 °F /  -13.6 °C 1018.2 in /  34476.3 hPa NE 3.2 mph /  5.1 km/h 16.1 mph /  25.9 km/h 70 % 0.0 in /  0 mm
21:02 12.7 °F /  -10.7 °C 7.4 °F /  -13.7 °C 1018.2 in /  34476.3 hPa NE 3.2 mph /  5.1 km/h 16.1 mph /  25.9 km/h 70 % 0.0 in /  0 mm
21:12 12.4 °F /  -10.9 °C 7.3 °F /  -13.7 °C 1018.2 in /  34476.3 hPa NNE 3.2 mph /  5.1 km/h 9.7 mph /  15.6 km/h 71 % 0.0 in /  0 mm
21:17 12.3 °F /  -10.9 °C 7.4 °F /  -13.7 °C 1018.2 in /  34476.3 hPa NE 3.2 mph /  5.1 km/h 9.7 mph /  15.6 km/h 72 % 0.0 in /  0 mm
21:22 12.3 °F /  -10.9 °C 7.4 °F /  -13.7 °C 1018.2 in /  34476.3 hPa NNE 6.4 mph /  10.3 km/h 8.0 mph /  12.9 km/h 72 % 0.0 in /  0 mm
21:27 12.1 °F /  -11.1 °C 7.4 °F /  -13.7 °C 1018.2 in /  34476.3 hPa North 3.2 mph /  5.1 km/h 8.0 mph /  12.9 km/h 73 % 0.0 in /  0 mm
21:37 11.7 °F /  -11.3 °C 7.2 °F /  -13.8 °C 1018.5 in /  34486.4 hPa NNE 4.8 mph /  7.7 km/h 8.0 mph /  12.9 km/h 74 % 0.0 in /  0 mm
21:42 11.7 °F /  -11.3 °C 7.2 °F /  -13.8 °C 1018.5 in /  34486.4 hPa Calm   6.4 mph /  10.3 km/h 74 % 0.0 in /  0 mm
21:47 11.6 °F /  -11.3 °C 7.1 °F /  -13.8 °C 1018.5 in /  34486.4 hPa ENE 3.2 mph /  5.1 km/h 6.4 mph /  10.3 km/h 74 % 0.0 in /  0 mm
21:52 11.4 °F /  -11.4 °C 7.1 °F /  -13.8 °C 1018.5 in /  34486.4 hPa NNE 4.8 mph /  7.7 km/h 6.4 mph /  10.3 km/h 75 % 0.0 in /  0 mm
21:57 11.4 °F /  -11.4 °C 7.1 °F /  -13.8 °C 1018.5 in /  34486.4 hPa NNE 4.8 mph /  7.7 km/h 6.4 mph /  10.3 km/h 75 % 0.0 in /  0 mm
22:02 11.4 °F /  -11.4 °C 7.1 °F /  -13.8 °C 1018.5 in /  34486.4 hPa ENE 1.6 mph /  2.6 km/h 6.4 mph /  10.3 km/h 75 % 0.0 in /  0 mm
22:07 11.3 °F /  -11.5 °C 7.0 °F /  -13.9 °C 1018.5 in /  34486.4 hPa NNE 3.2 mph /  5.1 km/h 8.0 mph /  12.9 km/h 75 % 0.0 in /  0 mm
22:12 11.1 °F /  -11.6 °C 6.8 °F /  -14 °C 1018.5 in /  34486.4 hPa Calm   8.0 mph /  12.9 km/h 75 % 0.0 in /  0 mm
22:17 10.9 °F /  -11.7 °C 6.8 °F /  -14 °C 1018.5 in /  34486.4 hPa Calm   8.0 mph /  12.9 km/h 76 % 0.0 in /  0 mm
22:22 10.9 °F /  -11.7 °C 6.8 °F /  -14 °C 1018.5 in /  34486.4 hPa NNW 1.6 mph /  2.6 km/h 6.4 mph /  10.3 km/h 76 % 0.0 in /  0 mm
22:27 10.9 °F /  -11.7 °C 6.8 °F /  -14 °C 1018.5 in /  34486.4 hPa NNE 1.6 mph /  2.6 km/h 4.8 mph /  7.7 km/h 76 % 0.0 in /  0 mm
22:32 10.9 °F /  -11.7 °C 6.6 °F /  -14.1 °C 1018.5 in /  34486.4 hPa NNW 3.2 mph /  5.1 km/h 4.8 mph /  7.7 km/h 75 % 0.0 in /  0 mm
22:37 10.8 °F /  -11.8 °C 6.5 °F /  -14.2 °C 1018.5 in /  34486.4 hPa Calm   4.8 mph /  7.7 km/h 75 % 0.0 in /  0 mm
22:47 10.6 °F /  -11.9 °C 6.4 °F /  -14.2 °C 1018.5 in /  34486.4 hPa Calm   4.8 mph /  7.7 km/h 75 % 0.0 in /  0 mm
22:52 10.4 °F /  -12 °C 6.4 °F /  -14.2 °C 1018.5 in /  34486.4 hPa Calm   3.2 mph /  5.1 km/h 76 % 0.0 in /  0 mm
22:57 10.2 °F /  -12.1 °C 6.2 °F /  -14.3 °C 1018.5 in /  34486.4 hPa Calm   3.2 mph /  5.1 km/h 76 % 0.0 in /  0 mm
23:02 9.9 °F /  -12.3 °C 6.1 °F /  -14.4 °C 1018.5 in /  34486.4 hPa Calm   3.2 mph /  5.1 km/h 77 % 0.0 in /  0 mm
23:07 9.9 °F /  -12.3 °C 6.1 °F /  -14.4 °C 1018.5 in /  34486.4 hPa Calm   1.6 mph /  2.6 km/h 77 % 0.0 in /  0 mm
23:12 9.9 °F /  -12.3 °C 6.1 °F /  -14.4 °C 1018.5 in /  34486.4 hPa Calm   1.6 mph /  2.6 km/h 77 % 0.0 in /  0 mm
23:17 9.8 °F /  -12.3 °C 6.0 °F /  -14.4 °C 1018.5 in /  34486.4 hPa Calm   1.6 mph /  2.6 km/h 77 % 0.0 in /  0 mm
23:27 9.7 °F /  -12.4 °C 6.0 °F /  -14.4 °C 1018.5 in /  34486.4 hPa Calm   1.6 mph /  2.6 km/h 78 % 0.0 in /  0 mm
23:37 9.7 °F /  -12.4 °C 5.9 °F /  -14.5 °C 1018.8 in /  34496.6 hPa Calm   1.6 mph /  2.6 km/h 77 % 0.0 in /  0 mm
23:42 9.7 °F /  -12.4 °C 5.9 °F /  -14.5 °C 1018.8 in /  34496.6 hPa Calm   1.6 mph /  2.6 km/h 77 % 0.0 in /  0 mm
23:47 9.4 °F /  -12.6 °C 5.8 °F /  -14.6 °C 1018.8 in /  34496.6 hPa Calm   1.6 mph /  2.6 km/h 78 % 0.0 in /  0 mm
23:52 9.4 °F /  -12.6 °C 5.8 °F /  -14.6 °C 1018.8 in /  34496.6 hPa Calm   1.6 mph /  2.6 km/h 78 % 0.0 in /  0 mm
23:57 9.3 °F /  -12.6 °C 5.7 °F /  -14.6 °C 1018.8 in /  34496.6 hPa Calm   1.6 mph /  2.6 km/h 78 % 0.0 in /  0 mm
Meteo18
Compliments of Weather Underground - 4 mb

Script developed by  Jim McMurry - jmcmurry@mwt.net Adapted for the template by  Wim van der Kuil - Leuven-Template.eu

You find our weather info also at:

European Weather Network

Weather Underground

Equipment we use:

Weather-station
Davis Vue

Weather-program
Meteobridge

Weather-server
Raspberry PI 2 B+

Provider
1 and 1

Davis Vue

Meteobridge

Raspberry PI 2 B+

1 and 1